createdAt,value
2023-02-11T00:00:28.212Z,89.29
2023-02-11T00:00:59.123Z,89.40
2023-02-11T00:01:30.040Z,89.40
2023-02-11T00:02:01.066Z,89.54
2023-02-11T00:02:31.580Z,89.97
2023-02-11T00:03:02.103Z,90.08
2023-02-11T00:03:33.100Z,90.18
2023-02-11T00:04:03.579Z,90.28
2023-02-11T00:04:34.512Z,90.18
2023-02-11T00:05:05.444Z,90.08
2023-02-11T00:05:36.353Z,89.93
2023-02-11T00:06:07.269Z,89.93
2023-02-11T00:06:38.177Z,90.03
2023-02-11T00:07:09.104Z,90.03
2023-02-11T00:07:40.037Z,89.93
2023-02-11T00:08:10.944Z,89.82
2023-02-11T00:08:41.949Z,89.72
2023-02-11T00:09:12.875Z,89.61
2023-02-11T00:09:43.779Z,89.51
2023-02-11T00:10:14.712Z,89.29
2023-02-11T00:10:45.617Z,89.51
2023-02-11T00:11:16.534Z,89.40
2023-02-11T00:11:47.490Z,89.19
2023-02-11T00:12:18.378Z,89.02
2023-02-11T00:12:49.327Z,89.02
2023-02-11T00:13:20.253Z,89.23
2023-02-11T00:13:51.195Z,89.44
2023-02-11T00:14:22.096Z,89.65
2023-02-11T00:14:53.003Z,89.54
2023-02-11T00:15:23.943Z,89.44
2023-02-11T00:15:54.882Z,89.54
2023-02-11T00:16:25.799Z,89.76
2023-02-11T00:16:56.879Z,89.86
2023-02-11T00:17:27.322Z,89.86
2023-02-11T00:17:58.219Z,89.97
2023-02-11T00:18:29.171Z,89.97
2023-02-11T00:19:00.142Z,90.08
2023-02-11T00:19:31.042Z,90.18
2023-02-11T00:20:01.986Z,90.14
2023-02-11T00:20:32.891Z,89.97
2023-02-11T00:21:03.791Z,89.65
2023-02-11T00:21:34.736Z,89.44
2023-02-11T00:22:05.618Z,89.12
2023-02-11T00:22:36.521Z,88.92
2023-02-11T00:23:07.448Z,88.81
2023-02-11T00:23:38.387Z,88.70
2023-02-11T00:24:09.327Z,88.49
2023-02-11T00:24:40.272Z,88.60
2023-02-11T00:25:11.206Z,88.81
2023-02-11T00:25:42.137Z,88.92
2023-02-11T00:26:13.043Z,88.92
2023-02-11T00:26:43.964Z,88.92
2023-02-11T00:27:14.914Z,88.92
2023-02-11T00:27:45.865Z,89.02
2023-02-11T00:28:16.915Z,89.02
2023-02-11T00:28:47.342Z,89.02
2023-02-11T00:29:18.310Z,89.02
2023-02-11T00:29:49.218Z,89.12
2023-02-11T00:30:20.122Z,89.23
2023-02-11T00:30:51.091Z,89.44
2023-02-11T00:31:22.214Z,89.54
2023-02-11T00:31:52.862Z,89.44
2023-02-11T00:32:23.317Z,89.09
2023-02-11T00:32:54.234Z,89.02
2023-02-11T00:33:25.190Z,88.98
2023-02-11T00:33:56.159Z,88.98
2023-02-11T00:34:26.627Z,88.77
2023-02-11T00:34:57.559Z,88.56
2023-02-11T00:35:28.478Z,88.56
2023-02-11T00:35:59.393Z,88.77
2023-02-11T00:36:30.345Z,89.09
2023-02-11T00:37:01.240Z,89.29
2023-02-11T00:37:32.199Z,89.19
2023-02-11T00:38:03.105Z,89.19
2023-02-11T00:38:34.032Z,89.09
2023-02-11T00:39:04.948Z,88.87
2023-02-11T00:39:35.874Z,88.77
2023-02-11T00:40:07.014Z,88.77
2023-02-11T00:40:37.424Z,88.66
2023-02-11T00:41:08.352Z,88.56
2023-02-11T00:41:39.276Z,88.56
2023-02-11T00:42:10.203Z,88.35
2023-02-11T00:42:41.112Z,88.35
2023-02-11T00:43:42.964Z,88.45
2023-02-11T00:44:13.888Z,88.66
2023-02-11T00:44:44.820Z,88.77
2023-02-11T00:45:15.726Z,88.77
2023-02-11T00:45:46.694Z,88.66
2023-02-11T00:46:17.678Z,88.56
2023-02-11T00:46:48.140Z,88.66
2023-02-11T00:47:19.052Z,88.87
2023-02-11T00:47:49.983Z,88.98
2023-02-11T00:48:20.885Z,88.98
2023-02-11T00:48:51.976Z,89.09
2023-02-11T00:49:22.432Z,89.29
2023-02-11T00:49:53.337Z,89.51
2023-02-11T00:50:24.259Z,89.61
2023-02-11T00:50:55.197Z,89.72
2023-02-11T00:51:26.115Z,89.82
2023-02-11T00:51:57.048Z,89.93
2023-02-11T00:52:27.978Z,90.08
2023-02-11T00:52:58.897Z,89.65
2023-02-11T00:53:29.832Z,89.44
2023-02-11T00:54:00.763Z,89.54
2023-02-11T00:54:31.696Z,89.65
2023-02-11T00:55:02.581Z,89.76
2023-02-11T00:55:33.498Z,89.86
2023-02-11T00:56:04.422Z,89.76
2023-02-11T00:56:35.356Z,89.76
2023-02-11T00:57:06.283Z,89.86
2023-02-11T00:57:37.213Z,89.86
2023-02-11T00:58:08.130Z,89.86
2023-02-11T00:58:39.040Z,89.90
2023-02-11T00:59:09.960Z,90.01
2023-02-11T00:59:40.876Z,90.22
2023-02-11T01:00:11.805Z,90.33
2023-02-11T01:01:13.760Z,90.54
2023-02-11T01:01:44.726Z,90.54
2023-02-11T01:02:15.662Z,90.75
2023-02-11T01:02:46.555Z,90.85
2023-02-11T01:03:17.455Z,90.75
2023-02-11T01:03:48.392Z,90.75
2023-02-11T01:04:19.302Z,90.75
2023-02-11T01:04:50.286Z,90.85
2023-02-11T01:05:21.279Z,90.85
2023-02-11T01:06:22.579Z,90.64
2023-02-11T01:06:53.523Z,90.33
2023-02-11T01:07:24.449Z,90.54
2023-02-11T01:07:55.405Z,90.54
2023-02-11T01:08:26.329Z,90.54
2023-02-11T01:08:57.232Z,90.43
2023-02-11T01:09:28.134Z,90.43
2023-02-11T01:09:59.064Z,90.54
2023-02-11T01:10:29.978Z,90.85
2023-02-11T01:11:00.939Z,91.06
2023-02-11T01:11:31.541Z,91.06
2023-02-11T01:12:02.446Z,91.06
2023-02-11T01:12:36.156Z,91.06
2023-02-11T01:13:04.339Z,91.02
2023-02-11T01:13:35.254Z,90.70
2023-02-11T01:14:06.178Z,90.60
2023-02-11T01:14:37.123Z,90.60
2023-02-11T01:15:08.058Z,90.50
2023-02-11T01:15:39.014Z,90.18
2023-02-11T01:16:09.999Z,90.08
2023-02-11T01:16:40.417Z,90.01
2023-02-11T01:17:11.355Z,89.97
2023-02-11T01:17:42.281Z,89.86
2023-02-11T01:18:13.183Z,89.76
2023-02-11T01:18:44.121Z,89.76
2023-02-11T01:19:15.037Z,89.76
2023-02-11T01:19:45.993Z,89.86
2023-02-11T01:20:16.891Z,89.76
2023-02-11T01:20:47.800Z,89.65
2023-02-11T01:21:18.733Z,89.76
2023-02-11T01:21:49.637Z,89.90
2023-02-11T01:22:20.550Z,89.86
2023-02-11T01:22:51.462Z,89.65
2023-02-11T01:23:22.367Z,89.65
2023-02-11T01:23:53.264Z,89.76
2023-02-11T01:24:24.231Z,89.86
2023-02-11T01:24:55.167Z,89.86
2023-02-11T01:25:26.097Z,89.76
2023-02-11T01:25:57.033Z,89.76
2023-02-11T01:26:27.955Z,89.76
2023-02-11T01:26:58.887Z,89.86
2023-02-11T01:27:29.833Z,89.86
2023-02-11T01:28:00.793Z,89.97
2023-02-11T01:28:31.799Z,89.97
2023-02-11T01:29:02.231Z,89.97
2023-02-11T01:29:33.159Z,90.08
2023-02-11T01:30:04.104Z,90.28
2023-02-11T01:30:35.046Z,90.18
2023-02-11T01:31:06.009Z,90.28
2023-02-11T01:31:37.025Z,90.18
2023-02-11T01:32:07.552Z,89.54
2023-02-11T01:32:37.976Z,89.02
2023-02-11T01:33:08.922Z,89.02
2023-02-11T01:33:39.829Z,89.12
2023-02-11T01:34:10.759Z,89.02
2023-02-11T01:34:41.706Z,88.70
2023-02-11T01:35:12.641Z,88.60
2023-02-11T01:35:43.589Z,88.49
2023-02-11T01:36:14.500Z,88.70
2023-02-11T01:36:45.417Z,88.81
2023-02-11T01:37:16.341Z,89.12
2023-02-11T01:37:47.293Z,89.44
2023-02-11T01:38:18.205Z,89.76
2023-02-11T01:38:49.132Z,89.97
2023-02-11T01:39:20.030Z,89.76
2023-02-11T01:39:50.939Z,89.44
2023-02-11T01:40:21.873Z,89.23
2023-02-11T01:40:52.791Z,89.23
2023-02-11T01:41:23.721Z,89.44
2023-02-11T01:41:54.696Z,89.54
2023-02-11T01:42:25.142Z,89.86
2023-02-11T01:42:56.065Z,90.08
2023-02-11T01:43:26.985Z,90.18
2023-02-11T01:43:57.911Z,90.39
2023-02-11T01:44:28.871Z,90.50
2023-02-11T01:44:59.786Z,90.60
2023-02-11T01:45:30.702Z,90.60
2023-02-11T01:46:01.689Z,90.60
2023-02-11T01:46:32.704Z,90.50
2023-02-11T01:47:03.121Z,90.70
2023-02-11T01:47:34.079Z,90.70
2023-02-11T01:48:04.987Z,90.75
2023-02-11T01:48:35.964Z,90.75
2023-02-11T01:49:06.932Z,90.70
2023-02-11T01:49:37.489Z,90.75
2023-02-11T01:50:08.397Z,90.75
2023-02-11T01:50:39.341Z,90.85
2023-02-11T01:51:10.276Z,90.96
2023-02-11T01:51:41.201Z,90.64
2023-02-11T01:52:12.114Z,90.22
2023-02-11T01:52:43.043Z,90.22
2023-02-11T01:53:13.949Z,90.43
2023-02-11T01:53:44.872Z,90.75
2023-02-11T01:54:15.828Z,90.96
2023-02-11T01:54:46.760Z,91.17
2023-02-11T01:55:17.681Z,91.38
2023-02-11T01:55:48.928Z,91.59
2023-02-11T01:56:19.480Z,91.49
2023-02-11T01:56:50.397Z,91.49
2023-02-11T01:57:21.287Z,91.38
2023-02-11T01:57:52.198Z,91.28
2023-02-11T01:58:23.108Z,91.38
2023-02-11T01:58:54.036Z,91.49
2023-02-11T01:59:24.967Z,91.59
2023-02-11T01:59:55.882Z,91.38
2023-02-11T02:00:26.792Z,91.28
2023-02-11T02:00:57.692Z,90.85
2023-02-11T02:01:28.651Z,90.54
2023-02-11T02:01:59.586Z,90.33
2023-02-11T02:02:30.513Z,90.11
2023-02-11T02:03:01.410Z,90.01
2023-02-11T02:03:32.390Z,90.01
2023-02-11T02:04:03.391Z,90.33
2023-02-11T02:04:33.845Z,90.54
2023-02-11T02:05:04.757Z,90.43
2023-02-11T02:05:35.659Z,90.33
2023-02-11T02:06:06.588Z,90.01
2023-02-11T02:06:37.523Z,89.90
2023-02-11T02:07:08.467Z,89.90
2023-02-11T02:07:39.458Z,89.90
2023-02-11T02:08:10.354Z,89.73
2023-02-11T02:08:41.285Z,89.73
2023-02-11T02:09:12.208Z,89.84
2023-02-11T02:09:43.157Z,90.26
2023-02-11T02:10:14.086Z,90.37
2023-02-11T02:10:45.005Z,90.26
2023-02-11T02:11:15.894Z,90.26
2023-02-11T02:11:46.818Z,90.47
2023-02-11T02:12:17.728Z,90.69
2023-02-11T02:12:48.650Z,91.00
2023-02-11T02:13:19.552Z,91.11
2023-02-11T02:13:50.451Z,91.31
2023-02-11T02:14:21.370Z,91.21
2023-02-11T02:14:52.276Z,91.31
2023-02-11T02:15:23.188Z,91.21
2023-02-11T02:15:54.189Z,91.31
2023-02-11T02:16:24.718Z,91.67
2023-02-11T02:16:55.632Z,92.20
2023-02-11T02:17:26.590Z,92.52
2023-02-11T02:17:57.506Z,92.52
2023-02-11T02:18:28.445Z,92.52
2023-02-11T02:18:59.375Z,92.83
2023-02-11T02:19:30.325Z,93.26
2023-02-11T02:20:01.236Z,93.57
2023-02-11T02:20:32.161Z,93.57
2023-02-11T02:21:03.106Z,93.68
2023-02-11T02:21:34.018Z,93.79
2023-02-11T02:22:04.950Z,93.57
2023-02-11T02:22:35.906Z,93.26
2023-02-11T02:23:06.840Z,92.94
2023-02-11T02:23:37.827Z,92.94
2023-02-11T02:24:08.758Z,93.26
2023-02-11T02:24:39.710Z,93.47
2023-02-11T02:25:10.627Z,93.68
2023-02-11T02:25:41.521Z,93.68
2023-02-11T02:26:12.435Z,93.79
2023-02-11T02:26:43.376Z,93.85
2023-02-11T02:27:14.288Z,94.00
2023-02-11T02:27:45.203Z,93.85
2023-02-11T02:28:16.163Z,94.00
2023-02-11T02:28:47.066Z,93.96
2023-02-11T02:29:18.018Z,94.17
2023-02-11T02:29:48.918Z,94.48
2023-02-11T02:30:19.837Z,94.70
2023-02-11T02:30:50.779Z,94.80
2023-02-11T02:31:21.753Z,94.90
2023-02-11T02:31:52.755Z,94.80
2023-02-11T02:32:23.205Z,94.48
2023-02-11T02:32:54.143Z,94.06
2023-02-11T02:33:25.099Z,94.06
2023-02-11T02:33:56.022Z,94.27
2023-02-11T02:34:26.938Z,94.48
2023-02-11T02:34:57.890Z,94.59
2023-02-11T02:35:28.800Z,94.59
2023-02-11T02:35:59.727Z,94.48
2023-02-11T02:36:30.654Z,94.06
2023-02-11T02:37:01.579Z,93.74
2023-02-11T02:37:32.500Z,93.74
2023-02-11T02:38:03.401Z,93.74
2023-02-11T02:38:34.336Z,93.96
2023-02-11T02:39:05.258Z,94.17
2023-02-11T02:39:36.183Z,94.48
2023-02-11T02:40:07.096Z,94.59
2023-02-11T02:40:38.030Z,94.59
2023-02-11T02:41:08.935Z,94.48
2023-02-11T02:41:39.856Z,94.55
2023-02-11T02:42:10.769Z,94.70
2023-02-11T02:42:41.687Z,94.65
2023-02-11T02:43:12.616Z,94.55
2023-02-11T02:43:43.537Z,94.44
2023-02-11T02:44:14.481Z,94.34
2023-02-11T02:44:45.428Z,94.23
2023-02-11T02:45:16.364Z,94.23
2023-02-11T02:45:47.335Z,94.23
2023-02-11T02:46:17.798Z,94.23
2023-02-11T02:46:48.798Z,94.12
2023-02-11T02:47:19.256Z,94.12
2023-02-11T02:47:50.169Z,93.91
2023-02-11T02:48:21.057Z,93.70
2023-02-11T02:48:51.985Z,93.60
2023-02-11T02:49:22.938Z,93.38
2023-02-11T02:49:53.856Z,93.38
2023-02-11T02:50:24.818Z,93.38
2023-02-11T02:50:55.720Z,93.49
2023-02-11T02:51:26.625Z,93.49
2023-02-11T02:51:57.518Z,93.18
2023-02-11T02:52:28.439Z,92.96
2023-02-11T02:52:59.374Z,93.18
2023-02-11T02:53:30.286Z,93.49
2023-02-11T02:54:01.224Z,93.60
2023-02-11T02:54:32.163Z,93.54
2023-02-11T02:55:03.111Z,93.22
2023-02-11T02:55:34.029Z,93.01
2023-02-11T02:56:04.945Z,93.11
2023-02-11T02:56:35.872Z,92.90
2023-02-11T02:57:06.806Z,92.79
2023-02-11T02:57:37.745Z,92.79
2023-02-11T02:58:08.678Z,92.79
2023-02-11T02:58:39.596Z,92.79
2023-02-11T02:59:10.519Z,92.90
2023-02-11T02:59:41.440Z,93.11
2023-02-11T03:00:43.302Z,93.11
2023-02-11T03:01:14.280Z,93.11
2023-02-11T03:01:45.196Z,93.11
2023-02-11T03:02:16.126Z,93.07
2023-02-11T03:02:47.056Z,93.07
2023-02-11T03:03:17.960Z,92.76
2023-02-11T03:03:48.960Z,92.54
2023-02-11T03:04:19.389Z,92.44
2023-02-11T03:04:50.313Z,92.33
2023-02-11T03:05:21.212Z,92.22
2023-02-11T03:05:52.441Z,92.12
2023-02-11T03:06:23.096Z,92.12
2023-02-11T03:06:54.019Z,92.02
2023-02-11T03:07:24.925Z,91.70
2023-02-11T03:07:55.852Z,91.49
2023-02-11T03:08:26.767Z,91.06
2023-02-11T03:08:57.684Z,90.85
2023-02-11T03:09:28.618Z,90.70
2023-02-11T03:09:59.589Z,90.60
2023-02-11T03:10:30.508Z,90.50
2023-02-11T03:11:01.406Z,90.39
2023-02-11T03:11:32.312Z,90.39
2023-02-11T03:12:03.223Z,90.50
2023-02-11T03:12:34.177Z,90.60
2023-02-11T03:13:05.084Z,90.81
2023-02-11T03:13:36.009Z,90.92
2023-02-11T03:14:06.940Z,91.02
2023-02-11T03:14:37.880Z,91.13
2023-02-11T03:15:08.792Z,90.92
2023-02-11T03:15:39.724Z,90.70
2023-02-11T03:16:10.705Z,90.33
2023-02-11T03:16:41.662Z,90.22
2023-02-11T03:17:12.590Z,90.43
2023-02-11T03:17:43.538Z,90.75
2023-02-11T03:18:14.462Z,90.96
2023-02-11T03:18:45.392Z,91.24
2023-02-11T03:19:16.302Z,91.38
2023-02-11T03:19:47.201Z,91.59
2023-02-11T03:20:18.143Z,91.70
2023-02-11T03:20:49.065Z,91.76
2023-02-11T03:21:20.014Z,91.66
2023-02-11T03:21:50.914Z,91.34
2023-02-11T03:22:21.849Z,90.92
2023-02-11T03:22:52.775Z,90.50
2023-02-11T03:23:23.701Z,90.18
2023-02-11T03:23:54.620Z,89.97
2023-02-11T03:24:25.539Z,90.08
2023-02-11T03:24:56.513Z,89.90
2023-02-11T03:25:27.424Z,89.69
2023-02-11T03:25:58.342Z,89.79
2023-02-11T03:26:29.256Z,89.90
2023-02-11T03:27:00.162Z,89.90
2023-02-11T03:27:30.885Z,90.11
2023-02-11T03:28:32.769Z,90.85
2023-02-11T03:29:03.263Z,91.06
2023-02-11T03:29:34.182Z,91.28
2023-02-11T03:30:05.093Z,91.38
2023-02-11T03:30:36.029Z,91.53
2023-02-11T03:31:07.193Z,91.85
2023-02-11T03:31:37.800Z,92.16
2023-02-11T03:32:08.276Z,92.37
2023-02-11T03:32:39.176Z,92.37
2023-02-11T03:33:10.103Z,92.05
2023-02-11T03:33:41.027Z,91.74
2023-02-11T03:34:11.961Z,91.53
2023-02-11T03:34:42.928Z,91.53
2023-02-11T03:35:13.828Z,91.63
2023-02-11T03:35:44.736Z,91.63
2023-02-11T03:36:15.654Z,91.42
2023-02-11T03:36:46.625Z,91.31
2023-02-11T03:37:17.518Z,91.53
2023-02-11T03:37:48.436Z,91.74
2023-02-11T03:38:19.358Z,92.16
2023-02-11T03:38:50.267Z,92.27
2023-02-11T03:39:21.187Z,92.37
2023-02-11T03:39:52.148Z,92.37
2023-02-11T03:40:23.034Z,92.37
2023-02-11T03:40:53.976Z,92.05
2023-02-11T03:41:24.892Z,91.85
2023-02-11T03:41:55.785Z,91.95
2023-02-11T03:42:26.706Z,92.05
2023-02-11T03:42:57.641Z,92.16
2023-02-11T03:43:28.537Z,92.48
2023-02-11T03:43:59.475Z,92.58
2023-02-11T03:44:30.362Z,92.69
2023-02-11T03:45:01.301Z,92.69
2023-02-11T03:46:03.220Z,92.44
2023-02-11T03:46:34.130Z,92.65
2023-02-11T03:47:05.067Z,92.86
2023-02-11T03:47:36.025Z,92.86
2023-02-11T03:48:06.940Z,92.76
2023-02-11T03:48:37.844Z,92.54
2023-02-11T03:49:08.754Z,92.33
2023-02-11T03:49:39.719Z,92.22
2023-02-11T03:50:10.631Z,91.91
2023-02-11T03:50:41.544Z,91.66
2023-02-11T03:51:12.497Z,91.34
2023-02-11T03:51:43.409Z,91.24
2023-02-11T03:52:14.383Z,91.13
2023-02-11T03:52:45.300Z,91.24
2023-02-11T03:53:16.230Z,91.24
2023-02-11T03:53:47.171Z,91.24
2023-02-11T03:54:18.107Z,91.13
2023-02-11T03:54:49.037Z,90.92
2023-02-11T03:55:19.970Z,90.81
2023-02-11T03:55:51.161Z,90.70
2023-02-11T03:56:21.697Z,90.60
2023-02-11T03:56:52.632Z,90.50
2023-02-11T03:57:23.564Z,90.39
2023-02-11T03:57:54.510Z,90.18
2023-02-11T03:58:25.431Z,90.18
2023-02-11T03:58:56.347Z,90.28
2023-02-11T03:59:27.251Z,90.22
2023-02-11T03:59:58.184Z,90.22
2023-02-11T04:00:29.088Z,90.33
2023-02-11T04:01:00.072Z,90.54
2023-02-11T04:01:31.049Z,90.85
2023-02-11T04:02:01.974Z,91.06
2023-02-11T04:02:32.877Z,91.28
2023-02-11T04:03:03.825Z,91.34
2023-02-11T04:03:34.844Z,91.55
2023-02-11T04:04:05.352Z,91.66
2023-02-11T04:04:36.276Z,91.66
2023-02-11T04:05:07.186Z,91.66
2023-02-11T04:05:38.108Z,91.66
2023-02-11T04:06:09.066Z,91.38
2023-02-11T04:06:39.999Z,91.28
2023-02-11T04:07:10.904Z,91.28
2023-02-11T04:07:41.850Z,91.06
2023-02-11T04:08:43.728Z,90.96
2023-02-11T04:09:14.183Z,91.06
2023-02-11T04:09:45.151Z,91.17
2023-02-11T04:10:16.108Z,91.24
2023-02-11T04:10:47.022Z,91.34
2023-02-11T04:11:17.957Z,91.34
2023-02-11T04:11:48.858Z,91.34
2023-02-11T04:12:19.778Z,91.34
2023-02-11T04:12:50.694Z,91.24
2023-02-11T04:13:21.615Z,91.24
2023-02-11T04:13:52.552Z,91.02
2023-02-11T04:14:23.485Z,90.92
2023-02-11T04:14:54.440Z,90.92
2023-02-11T04:15:25.333Z,90.60
2023-02-11T04:15:56.250Z,90.50
2023-02-11T04:16:27.228Z,90.50
2023-02-11T04:16:58.185Z,90.39
2023-02-11T04:17:29.110Z,90.28
2023-02-11T04:18:00.012Z,90.28
2023-02-11T04:18:30.932Z,90.18
2023-02-11T04:19:01.856Z,90.08
2023-02-11T04:19:32.763Z,89.86
2023-02-11T04:20:03.677Z,89.65
2023-02-11T04:20:34.589Z,89.54
2023-02-11T04:21:05.540Z,89.65
2023-02-11T04:21:36.474Z,89.86
2023-02-11T04:22:07.399Z,90.18
2023-02-11T04:22:38.323Z,90.28
2023-02-11T04:23:09.289Z,90.39
2023-02-11T04:23:40.198Z,90.50
2023-02-11T04:24:11.152Z,90.45
2023-02-11T04:24:42.056Z,90.35
2023-02-11T04:25:12.996Z,90.25
2023-02-11T04:25:43.910Z,89.93
2023-02-11T04:26:14.842Z,89.82
2023-02-11T04:26:45.755Z,90.08
2023-02-11T04:27:16.653Z,90.18
2023-02-11T04:27:47.562Z,90.28
2023-02-11T04:28:18.530Z,90.28
2023-02-11T04:28:49.460Z,90.28
2023-02-11T04:29:20.357Z,90.39
2023-02-11T04:29:51.320Z,90.39
2023-02-11T04:30:22.246Z,90.60
2023-02-11T04:30:53.193Z,90.70
2023-02-11T04:31:24.265Z,90.81
2023-02-11T04:31:54.815Z,91.02
2023-02-11T04:32:25.746Z,91.13
2023-02-11T04:32:56.686Z,91.24
2023-02-11T04:33:27.595Z,91.24
2023-02-11T04:33:58.474Z,91.13
2023-02-11T04:34:29.406Z,90.92
2023-02-11T04:35:00.327Z,90.70
2023-02-11T04:35:31.269Z,90.60
2023-02-11T04:36:02.181Z,90.28
2023-02-11T04:36:33.097Z,90.18
2023-02-11T04:37:04.034Z,90.39
2023-02-11T04:37:34.930Z,90.60
2023-02-11T04:38:05.881Z,90.70
2023-02-11T04:38:36.861Z,90.92
2023-02-11T04:39:07.764Z,91.02
2023-02-11T04:39:38.669Z,91.24
2023-02-11T04:40:09.580Z,91.34
2023-02-11T04:40:40.524Z,91.44
2023-02-11T04:41:11.434Z,91.34
2023-02-11T04:41:42.356Z,91.34
2023-02-11T04:42:12.980Z,91.34
2023-02-11T04:42:43.888Z,91.34
2023-02-11T04:43:14.785Z,91.24
2023-02-11T04:43:45.704Z,91.24
2023-02-11T04:44:16.629Z,91.19
2023-02-11T04:44:47.560Z,91.19
2023-02-11T04:45:18.508Z,90.98
2023-02-11T04:45:49.832Z,90.77
2023-02-11T04:46:20.018Z,90.88
2023-02-11T04:46:50.447Z,91.09
2023-02-11T04:47:21.354Z,91.13
2023-02-11T04:47:52.276Z,91.02
2023-02-11T04:48:23.184Z,91.02
2023-02-11T04:48:54.212Z,91.13
2023-02-11T04:49:25.096Z,91.55
2023-02-11T04:49:56.009Z,91.86
2023-02-11T04:50:26.918Z,92.18
2023-02-11T04:50:57.819Z,92.40
2023-02-11T04:51:28.753Z,92.40
2023-02-11T04:51:59.724Z,92.50
2023-02-11T04:52:30.672Z,92.60
2023-02-11T04:53:01.578Z,92.71
2023-02-11T04:54:03.439Z,92.50
2023-02-11T04:54:34.338Z,92.50
2023-02-11T04:55:05.247Z,92.18
2023-02-11T04:55:36.230Z,91.97
2023-02-11T04:56:07.152Z,91.97
2023-02-11T04:56:38.081Z,92.08
2023-02-11T04:57:08.988Z,92.29
2023-02-11T04:57:39.917Z,92.71
2023-02-11T04:58:10.824Z,93.13
2023-02-11T04:58:41.746Z,93.34
2023-02-11T04:59:12.677Z,93.45
2023-02-11T04:59:43.587Z,93.55
2023-02-11T05:00:14.501Z,93.66
2023-02-11T05:00:45.426Z,93.66
2023-02-11T05:01:16.380Z,93.77
2023-02-11T05:01:47.306Z,93.77
2023-02-11T05:02:18.250Z,93.77
2023-02-11T05:02:49.160Z,93.66
2023-02-11T05:03:20.090Z,93.45
2023-02-11T05:03:51.089Z,93.34
2023-02-11T05:04:21.589Z,93.34
2023-02-11T05:04:52.517Z,93.45
2023-02-11T05:05:23.438Z,93.41
2023-02-11T05:05:54.354Z,93.62
2023-02-11T05:06:25.294Z,93.73
2023-02-11T05:06:58.592Z,93.83
2023-02-11T05:07:27.104Z,93.83
2023-02-11T05:07:58.052Z,93.73
2023-02-11T05:08:28.968Z,93.62
2023-02-11T05:08:59.881Z,93.62
2023-02-11T05:09:30.831Z,93.62
2023-02-11T05:10:01.741Z,93.51
2023-02-11T05:10:32.656Z,93.51
2023-02-11T05:11:03.589Z,93.41
2023-02-11T05:11:34.494Z,93.41
2023-02-11T05:12:05.420Z,93.30
2023-02-11T05:12:36.370Z,93.09
2023-02-11T05:13:07.308Z,93.09
2023-02-11T05:13:38.223Z,93.19
2023-02-11T05:14:09.141Z,93.19
2023-02-11T05:14:40.098Z,93.30
2023-02-11T05:15:11.047Z,93.41
2023-02-11T05:16:12.916Z,93.68
2023-02-11T05:16:43.891Z,93.68
2023-02-11T05:17:14.833Z,93.57
2023-02-11T05:17:45.755Z,93.47
2023-02-11T05:18:16.671Z,93.47
2023-02-11T05:18:47.581Z,93.37
2023-02-11T05:19:18.500Z,93.47
2023-02-11T05:19:49.457Z,93.47
2023-02-11T05:20:20.385Z,93.37
2023-02-11T05:20:51.296Z,93.37
2023-02-11T05:21:22.202Z,93.26
2023-02-11T05:22:02.261Z,93.26
2023-02-11T05:22:23.918Z,93.47
2023-02-11T05:22:54.845Z,93.47
2023-02-11T05:23:25.734Z,93.57
2023-02-11T05:23:56.638Z,93.57
2023-02-11T05:24:27.560Z,93.68
2023-02-11T05:24:58.578Z,93.79
2023-02-11T05:25:29.465Z,93.99
2023-02-11T05:26:00.391Z,93.99
2023-02-11T05:26:31.314Z,94.10
2023-02-11T05:27:02.249Z,94.10
2023-02-11T05:27:33.180Z,93.99
2023-02-11T05:28:04.170Z,94.06
2023-02-11T05:28:35.096Z,94.06
2023-02-11T05:29:06.009Z,94.17
2023-02-11T05:29:36.925Z,94.27
2023-02-11T05:30:07.833Z,94.27
2023-02-11T05:30:38.810Z,94.27
2023-02-11T05:31:09.883Z,94.27
2023-02-11T05:31:40.301Z,94.27
2023-02-11T05:32:11.237Z,94.48
2023-02-11T05:32:42.140Z,94.48
2023-02-11T05:33:13.092Z,94.48
2023-02-11T05:33:44.031Z,94.48
2023-02-11T05:34:14.970Z,94.48
2023-02-11T05:34:45.891Z,94.38
2023-02-11T05:35:16.851Z,94.38
2023-02-11T05:35:47.920Z,94.27
2023-02-11T05:36:18.356Z,94.38
2023-02-11T05:36:49.273Z,94.27
2023-02-11T05:37:20.260Z,94.27
2023-02-11T05:37:51.158Z,94.27
2023-02-11T05:38:22.060Z,94.38
2023-02-11T05:38:52.976Z,94.27
2023-02-11T05:39:23.911Z,94.17
2023-02-11T05:39:54.819Z,93.95
2023-02-11T05:40:25.764Z,93.74
2023-02-11T05:40:56.668Z,93.53
2023-02-11T05:41:27.654Z,93.53
2023-02-11T05:41:58.562Z,93.53
2023-02-11T05:42:29.512Z,93.53
2023-02-11T05:43:00.452Z,93.53
2023-02-11T05:44:02.274Z,93.70
2023-02-11T05:44:33.192Z,93.70
2023-02-11T05:45:04.127Z,93.80
2023-02-11T05:45:35.031Z,94.02
2023-02-11T05:46:06.100Z,94.12
2023-02-11T05:46:36.575Z,94.23
2023-02-11T05:47:07.046Z,94.34
2023-02-11T05:47:37.963Z,94.34
2023-02-11T05:48:08.908Z,94.34
2023-02-11T05:48:39.830Z,94.44
2023-02-11T05:49:10.749Z,94.44
2023-02-11T05:49:41.668Z,94.34
2023-02-11T05:50:12.583Z,94.44
2023-02-11T05:50:43.501Z,94.48
2023-02-11T05:51:14.445Z,94.48
2023-02-11T05:51:45.375Z,94.48
2023-02-11T05:52:16.342Z,94.59
2023-02-11T05:52:47.356Z,94.59
2023-02-11T05:53:17.890Z,94.80
2023-02-11T05:53:48.481Z,94.90
2023-02-11T05:54:19.395Z,94.90
2023-02-11T05:54:50.334Z,94.80
2023-02-11T05:55:21.265Z,94.76
2023-02-11T05:55:52.520Z,94.65
2023-02-11T05:56:23.102Z,94.54
2023-02-11T05:56:54.003Z,94.44
2023-02-11T05:57:24.932Z,94.34
2023-02-11T05:57:55.852Z,94.34
2023-02-11T05:58:26.781Z,94.34
2023-02-11T05:58:57.706Z,94.44
2023-02-11T05:59:28.638Z,94.34
2023-02-11T05:59:59.571Z,94.34
2023-02-11T06:00:30.464Z,94.23
2023-02-11T06:01:01.380Z,94.34
2023-02-11T06:01:32.294Z,94.34
2023-02-11T06:02:03.213Z,94.54
2023-02-11T06:02:34.187Z,94.65
2023-02-11T06:03:05.127Z,94.60
2023-02-11T06:03:36.094Z,94.40
2023-02-11T06:04:07.004Z,94.18
2023-02-11T06:04:37.930Z,94.18
2023-02-11T06:05:08.836Z,94.18
2023-02-11T06:05:39.776Z,94.18
2023-02-11T06:06:10.665Z,94.29
2023-02-11T06:06:41.610Z,94.29
2023-02-11T06:07:12.523Z,94.40
2023-02-11T06:07:43.449Z,94.40
2023-02-11T06:08:14.376Z,94.29
2023-02-11T06:08:45.322Z,94.29
2023-02-11T06:09:16.243Z,94.18
2023-02-11T06:09:47.161Z,94.18
2023-02-11T06:10:18.045Z,94.08
2023-02-11T06:10:48.971Z,93.98
2023-02-11T06:11:19.915Z,93.98
2023-02-11T06:11:50.786Z,93.87
2023-02-11T06:12:21.679Z,93.87
2023-02-11T06:12:52.541Z,93.72
2023-02-11T06:13:23.407Z,93.62
2023-02-11T06:13:54.299Z,93.62
2023-02-11T06:14:25.163Z,93.62
2023-02-11T06:14:56.020Z,93.62
2023-02-11T06:15:26.940Z,93.51
2023-02-11T06:15:57.846Z,93.51
2023-02-11T06:16:28.803Z,93.72
2023-02-11T06:16:59.251Z,93.83
2023-02-11T06:17:30.136Z,93.83
2023-02-11T06:18:00.985Z,93.83
2023-02-11T06:18:31.873Z,93.51
2023-02-11T06:19:02.738Z,93.30
2023-02-11T06:19:33.627Z,93.09
2023-02-11T06:20:04.533Z,92.88
2023-02-11T06:20:35.392Z,92.99
2023-02-11T06:21:06.254Z,93.09
2023-02-11T06:21:43.953Z,93.41
2023-02-11T06:22:07.879Z,93.83
2023-02-11T06:22:38.496Z,93.87
2023-02-11T06:23:09.358Z,93.87
2023-02-11T06:23:40.252Z,93.98
2023-02-11T06:24:11.118Z,94.08
2023-02-11T06:25:00.320Z,93.98
2023-02-11T06:25:12.752Z,93.98
2023-02-11T06:25:43.622Z,93.87
2023-02-11T06:26:14.455Z,93.76
2023-02-11T06:26:45.340Z,93.76
2023-02-11T06:27:16.194Z,93.66
2023-02-11T06:27:47.037Z,93.66
2023-02-11T06:28:17.999Z,93.66
2023-02-11T06:28:48.922Z,93.55
2023-02-11T06:29:19.784Z,93.55
2023-02-11T06:29:50.659Z,93.66
2023-02-11T06:30:21.499Z,93.76
2023-02-11T06:30:52.494Z,93.87
2023-02-11T06:31:23.475Z,94.04
2023-02-11T06:31:54.044Z,94.08
2023-02-11T06:32:42.994Z,94.04
2023-02-11T06:32:55.261Z,94.04
2023-02-11T06:33:26.107Z,93.93
2023-02-11T06:33:56.974Z,93.93
2023-02-11T06:34:27.845Z,93.93
2023-02-11T06:34:58.751Z,93.93
2023-02-11T06:35:29.595Z,93.93
2023-02-11T06:36:00.445Z,94.14
2023-02-11T06:36:31.324Z,94.25
2023-02-11T06:37:33.069Z,94.46
2023-02-11T06:38:03.948Z,94.56
2023-02-11T06:38:34.824Z,94.46
2023-02-11T06:39:05.701Z,94.46
2023-02-11T06:39:36.573Z,94.46
2023-02-11T06:40:07.472Z,94.46
2023-02-11T06:40:38.355Z,94.46
2023-02-11T06:41:09.231Z,94.35
2023-02-11T06:41:40.077Z,94.25
2023-02-11T06:42:10.963Z,94.14
2023-02-11T06:42:41.821Z,94.04
2023-02-11T06:43:12.680Z,94.04
2023-02-11T06:43:43.562Z,93.93